createdAt,value
2022-09-28T00:04:34.883Z,99.83
2022-09-28T00:09:41.788Z,99.61
2022-09-28T00:14:47.284Z,99.70
2022-09-28T00:19:54.357Z,99.57
2022-09-28T00:25:01.658Z,99.45
2022-09-28T00:30:12.174Z,99.45
2022-09-28T00:35:25.512Z,99.29
2022-09-28T00:40:50.674Z,98.94
2022-09-28T00:46:04.555Z,99.11
2022-09-28T00:51:16.196Z,99.00
2022-09-28T00:56:31.152Z,99.13
2022-09-28T01:01:42.369Z,99.46
2022-09-28T01:06:53.135Z,99.64
2022-09-28T01:12:00.128Z,99.28
2022-09-28T01:17:09.104Z,98.67
2022-09-28T01:22:28.710Z,98.73
2022-09-28T01:27:40.370Z,98.88
2022-09-28T01:32:52.390Z,98.93
2022-09-28T01:38:04.209Z,98.97
2022-09-28T01:43:16.425Z,99.29
2022-09-28T01:48:28.436Z,99.15
2022-09-28T01:53:41.546Z,99.24
2022-09-28T01:58:53.626Z,99.36
2022-09-28T02:04:06.342Z,99.75
2022-09-28T02:09:17.923Z,99.99
2022-09-28T02:14:26.557Z,99.95
2022-09-28T02:19:34.474Z,100.00
2022-09-28T02:24:47.332Z,100.00
2022-09-28T02:29:54.720Z,100.00
2022-09-28T02:35:02.153Z,100.00
2022-09-28T02:40:17.519Z,99.97
2022-09-28T02:45:37.661Z,99.92
2022-09-28T02:51:01.139Z,99.85
2022-09-28T02:56:21.834Z,99.57
2022-09-28T03:01:36.637Z,99.14
2022-09-28T03:06:48.642Z,98.68
2022-09-28T03:11:58.481Z,97.82
2022-09-28T03:17:07.730Z,96.69
2022-09-28T03:22:14.635Z,95.75
2022-09-28T03:27:22.188Z,94.70
2022-09-28T03:32:29.282Z,94.45
2022-09-28T03:37:36.459Z,94.24
2022-09-28T03:42:44.473Z,94.39
2022-09-28T03:47:51.382Z,94.06
2022-09-28T03:53:02.678Z,93.32
2022-09-28T03:58:09.782Z,93.09
2022-09-28T04:03:16.680Z,93.59
2022-09-28T04:08:22.040Z,93.62
2022-09-28T04:13:30.592Z,93.68
2022-09-28T04:18:37.712Z,94.19
2022-09-28T04:23:43.570Z,93.86
2022-09-28T04:29:08.985Z,93.23
2022-09-28T04:34:18.340Z,92.98
2022-09-28T04:39:25.429Z,93.66
2022-09-28T04:44:30.917Z,94.01
2022-09-28T04:49:38.856Z,94.36
2022-09-28T04:54:45.924Z,94.38
2022-09-28T04:59:53.017Z,94.41
2022-09-28T05:04:59.300Z,95.10
2022-09-28T05:10:07.136Z,95.45
2022-09-28T05:15:15.148Z,95.53
2022-09-28T05:20:22.873Z,95.54
2022-09-28T05:25:29.962Z,95.85
2022-09-28T05:30:37.328Z,96.44
2022-09-28T05:35:45.592Z,96.18
2022-09-28T05:40:54.293Z,96.65
2022-09-28T05:46:02.917Z,96.91
2022-09-28T05:51:12.171Z,96.50
2022-09-28T05:56:19.087Z,96.02
2022-09-28T06:01:26.106Z,96.23
2022-09-28T06:06:31.898Z,96.31
2022-09-28T06:11:39.442Z,96.37
2022-09-28T06:16:46.669Z,95.91
2022-09-28T06:21:53.562Z,94.30
2022-09-28T06:27:00.915Z,93.23
2022-09-28T06:32:08.603Z,92.42
2022-09-28T06:37:15.552Z,92.24
2022-09-28T06:42:22.343Z,92.47
2022-09-28T06:47:27.916Z,92.77
2022-09-28T06:52:35.312Z,93.02
2022-09-28T06:57:40.665Z,92.44
2022-09-28T07:02:47.925Z,92.02
2022-09-28T07:07:56.908Z,90.16
2022-09-28T07:13:07.180Z,89.55
2022-09-28T07:18:16.215Z,88.13
2022-09-28T07:23:24.478Z,85.99
2022-09-28T07:28:31.805Z,85.30
2022-09-28T07:33:39.516Z,86.13
2022-09-28T07:38:46.296Z,85.77
2022-09-28T07:43:55.041Z,83.85
2022-09-28T07:49:08.390Z,82.46
2022-09-28T07:54:18.918Z,80.26
2022-09-28T07:59:29.235Z,80.80
2022-09-28T08:04:36.039Z,77.25
2022-09-28T08:09:43.142Z,76.42
2022-09-28T08:14:52.094Z,75.41
2022-09-28T08:20:17.730Z,73.87
2022-09-28T08:25:25.342Z,71.86
2022-09-28T08:30:32.773Z,73.33
2022-09-28T08:35:40.431Z,72.70
2022-09-28T08:40:58.271Z,71.80
2022-09-28T08:46:06.116Z,69.89
2022-09-28T08:51:19.981Z,68.80
2022-09-28T08:56:32.392Z,70.46
2022-09-28T09:01:51.893Z,70.11
2022-09-28T09:07:24.570Z,68.74
2022-09-28T09:12:40.319Z,67.56
2022-09-28T09:17:59.547Z,67.41
2022-09-28T09:23:18.743Z,67.13
2022-09-28T09:28:54.076Z,66.10
2022-09-28T09:34:19.712Z,65.32
2022-09-28T09:39:39.603Z,64.80
2022-09-28T09:44:59.997Z,65.56
2022-09-28T09:50:15.304Z,65.82
2022-09-28T09:55:30.076Z,65.25
2022-09-28T10:00:39.527Z,64.05
2022-09-28T10:05:51.542Z,63.81
2022-09-28T10:11:08.703Z,63.82
2022-09-28T10:16:13.972Z,62.81
2022-09-28T10:21:24.304Z,63.30
2022-09-28T10:26:36.769Z,64.75
2022-09-28T10:31:46.541Z,65.00
2022-09-28T10:36:58.326Z,63.76
2022-09-28T10:42:08.576Z,62.75
2022-09-28T10:47:20.382Z,64.45
2022-09-28T10:52:42.324Z,63.71
2022-09-28T10:57:49.628Z,63.91
2022-09-28T11:02:57.148Z,62.36
2022-09-28T11:08:08.521Z,61.82
2022-09-28T11:13:15.857Z,63.65
2022-09-28T11:18:28.366Z,64.27
2022-09-28T11:23:35.586Z,65.25
2022-09-28T11:28:43.402Z,64.90
2022-09-28T11:33:51.068Z,65.46
2022-09-28T11:39:09.429Z,65.53
2022-09-28T11:44:34.657Z,63.08
2022-09-28T11:49:46.503Z,62.51
2022-09-28T11:55:00.705Z,63.39
2022-09-28T12:00:16.798Z,62.28
2022-09-28T12:05:29.103Z,60.70
2022-09-28T12:10:45.373Z,59.70
2022-09-28T12:16:23.469Z,59.59
2022-09-28T12:21:40.277Z,59.07
2022-09-28T12:26:53.404Z,59.86
2022-09-28T12:32:11.249Z,59.20
2022-09-28T12:37:33.484Z,58.56
2022-09-28T12:42:54.825Z,57.05
2022-09-28T12:48:30.110Z,57.61
2022-09-28T12:54:00.094Z,57.25
2022-09-28T12:59:19.980Z,59.29
2022-09-28T13:04:44.538Z,58.97
2022-09-28T13:10:02.569Z,57.70
2022-09-28T13:15:28.153Z,57.83
2022-09-28T13:20:47.141Z,56.51
2022-09-28T13:25:58.323Z,57.11
2022-09-28T13:31:06.864Z,57.98
2022-09-28T13:36:42.536Z,58.17
2022-09-28T13:41:52.150Z,59.02
2022-09-28T13:47:34.483Z,58.52
2022-09-28T13:52:49.763Z,59.43
2022-09-28T13:58:01.987Z,59.99
2022-09-28T14:03:27.691Z,58.78
2022-09-28T14:08:45.437Z,58.61
2022-09-28T14:14:25.511Z,58.14
2022-09-28T14:19:35.331Z,58.97
2022-09-28T14:24:56.813Z,59.32
2022-09-28T14:30:20.584Z,59.83
2022-09-28T14:35:35.256Z,61.18
2022-09-28T14:41:11.043Z,62.38
2022-09-28T14:46:35.815Z,63.18
2022-09-28T14:52:02.806Z,63.95
2022-09-28T14:57:19.314Z,64.83
2022-09-28T15:02:33.234Z,65.71
2022-09-28T15:07:49.742Z,66.82
2022-09-28T15:13:01.360Z,68.29
2022-09-28T15:18:27.819Z,69.02
2022-09-28T15:23:41.190Z,70.53
2022-09-28T15:28:48.390Z,71.42
2022-09-28T15:34:13.219Z,71.19
2022-09-28T15:39:26.561Z,71.49
2022-09-28T15:44:37.217Z,72.01
2022-09-28T15:49:56.999Z,72.25
2022-09-28T15:55:08.097Z,73.19
2022-09-28T16:00:29.912Z,73.26
2022-09-28T16:05:42.421Z,73.06
2022-09-28T16:10:58.151Z,72.41
2022-09-28T16:16:05.208Z,71.79
2022-09-28T16:21:40.397Z,71.41
2022-09-28T16:26:48.847Z,70.51
2022-09-28T16:31:56.036Z,70.16
2022-09-28T16:37:23.421Z,69.45
2022-09-28T16:42:31.328Z,69.30
2022-09-28T16:47:38.219Z,69.28
2022-09-28T16:53:03.244Z,68.72
2022-09-28T16:58:10.545Z,68.82
2022-09-28T17:03:19.819Z,68.65
2022-09-28T17:08:27.716Z,69.12
2022-09-28T17:13:36.357Z,69.42
2022-09-28T17:18:43.871Z,70.03
2022-09-28T17:23:52.601Z,69.98
2022-09-28T17:29:00.055Z,70.64
2022-09-28T17:34:07.324Z,70.69
2022-09-28T17:39:16.315Z,70.77
2022-09-28T17:44:23.474Z,70.60
2022-09-28T17:49:30.490Z,70.47
2022-09-28T17:54:37.580Z,70.07
2022-09-28T17:59:44.676Z,69.86
2022-09-28T18:04:55.516Z,70.28
2022-09-28T18:10:03.904Z,70.45
2022-09-28T18:15:13.128Z,71.22
2022-09-28T18:20:22.983Z,70.92
2022-09-28T18:25:31.241Z,71.10
2022-09-28T18:30:41.955Z,71.58
2022-09-28T18:35:55.614Z,72.28
2022-09-28T18:41:10.464Z,72.43
2022-09-28T18:46:18.936Z,72.82
2022-09-28T18:51:26.707Z,73.11
2022-09-28T18:56:34.481Z,73.06
2022-09-28T19:01:42.128Z,73.22
2022-09-28T19:06:52.653Z,73.46
2022-09-28T19:11:59.696Z,72.95
2022-09-28T19:17:06.736Z,73.06
2022-09-28T19:22:15.797Z,73.10
2022-09-28T19:27:23.293Z,73.36
2022-09-28T19:32:31.540Z,73.78
2022-09-28T19:37:39.041Z,73.84
2022-09-28T19:42:46.145Z,73.99
2022-09-28T19:47:56.192Z,74.12
2022-09-28T19:53:07.527Z,73.90
2022-09-28T19:58:14.831Z,73.94
2022-09-28T20:03:21.921Z,74.30
2022-09-28T20:08:30.247Z,74.94
2022-09-28T20:13:38.520Z,75.82
2022-09-28T20:18:51.163Z,76.26
2022-09-28T20:23:58.629Z,77.17
2022-09-28T20:29:12.563Z,77.33
2022-09-28T20:34:21.305Z,77.33
2022-09-28T20:39:28.303Z,78.25
2022-09-28T20:44:37.971Z,79.14
2022-09-28T20:49:46.704Z,79.54
2022-09-28T20:54:56.153Z,80.20
2022-09-28T21:00:05.082Z,81.00
2022-09-28T21:05:12.943Z,82.19
2022-09-28T21:10:21.112Z,83.34
2022-09-28T21:15:28.408Z,83.78
2022-09-28T21:20:35.465Z,84.78
2022-09-28T21:25:45.834Z,85.03
2022-09-28T21:30:54.331Z,85.30
2022-09-28T21:36:05.411Z,85.43
2022-09-28T21:41:12.909Z,85.74
2022-09-28T21:46:20.096Z,86.14
2022-09-28T21:51:31.287Z,86.22
2022-09-28T21:56:38.793Z,87.12
2022-09-28T22:01:46.519Z,87.48
2022-09-28T22:06:53.510Z,87.85
2022-09-28T22:12:00.508Z,88.23
2022-09-28T22:17:07.578Z,88.68
2022-09-28T22:22:16.958Z,88.46
2022-09-28T22:27:24.271Z,88.77
2022-09-28T22:32:31.276Z,89.42
2022-09-28T22:37:38.279Z,89.59
2022-09-28T22:42:45.691Z,90.18
2022-09-28T22:47:52.796Z,90.60
2022-09-28T22:53:00.808Z,91.00
2022-09-28T22:58:08.294Z,91.43
2022-09-28T23:03:17.852Z,91.70
2022-09-28T23:08:25.513Z,91.94
2022-09-28T23:13:32.699Z,92.42
2022-09-28T23:18:41.926Z,92.76
2022-09-28T23:23:53.686Z,93.52
2022-09-28T23:29:02.317Z,93.57
2022-09-28T23:34:12.609Z,93.82
2022-09-28T23:39:19.682Z,94.33
2022-09-28T23:44:28.323Z,94.66
2022-09-28T23:49:35.322Z,95.37
2022-09-28T23:54:42.271Z,95.50
2022-09-28T23:59:49.451Z,95.63
